Time;durP1;ratioP1;P1;durP2;ratioP2;P2;SDS_P1;SDS_P2;PMS_P1;PMS_P2;Temp;Humidity;BMP_temperature;BMP_pressure;BME280_temperature;BME280_humidity;BME280_pressure;Samples;Min_cycle;Max_cycle;Signal;HPM_P1;HPM_P2
2021/08/10 00:01:28;;;;;;;8.40;3.95;;;;;;;13.80;71.86;100216.84;256249;1104;115690;-68
2021/08/10 00:06:34;;;;;;;;;;;;;;;13.78;71.80;100217.08;255751;1104;116136;-68
2021/08/10 00:11:39;;;;;;;5.00;3.48;;;;;;;13.74;71.94;100207.94;257737;1103;103027;-68
2021/08/10 00:16:48;;;;;;;5.33;3.48;;;;;;;13.65;71.90;100211.25;256991;1103;115131;-68
2021/08/10 00:21:54;;;;;;;5.03;3.65;;;;;;;13.61;71.55;100208.24;256999;1104;117829;-68
2021/08/10 00:27:02;;;;;;;5.65;3.33;;;;;;;13.63;71.65;100206.13;257031;1104;116034;-67
2021/08/10 00:32:09;;;;;;;6.08;4.20;;;;;;;13.61;72.30;100205.56;257409;1104;116379;-67
2021/08/10 00:37:14;;;;;;;;;;;;;;;13.61;71.78;100200.20;257117;1104;118308;-68
2021/08/10 00:42:20;;;;;;;7.30;3.88;;;;;;;13.64;71.83;100210.44;257898;1103;104883;-68
2021/08/10 00:47:25;;;;;;;8.88;4.63;;;;;;;13.64;71.63;100212.30;257129;1104;116931;-68
2021/08/10 00:52:31;;;;;;;7.08;4.18;;;;;;;13.59;72.12;100213.03;253948;1104;116614;-67
2021/08/10 00:57:38;;;;;;;6.40;4.83;;;;;;;13.52;71.70;100212.36;254978;1104;116596;-66
2021/08/10 01:02:46;;;;;;;6.85;3.90;;;;;;;13.43;71.87;100216.52;254364;1103;116459;-67
2021/08/10 01:08:05;;;;;;;5.67;4.23;;;;;;;13.39;72.15;100204.66;255421;1104;115911;-67
2021/08/10 01:13:23;;;;;;;5.65;4.83;;;;;;;13.34;72.10;100207.25;255502;1104;117143;-68
2021/08/10 01:18:38;;;;;;;11.18;4.28;;;;;;;13.30;72.44;100208.77;255763;1104;117044;-68
2021/08/10 01:23:51;;;;;;;11.60;4.60;;;;;;;13.19;72.44;100207.77;254994;1104;116755;-68
2021/08/10 01:29:17;;;;;;;5.85;4.33;;;;;;;13.07;72.49;100207.00;253964;1104;116421;-68
2021/08/10 01:34:27;;;;;;;5.68;5.08;;;;;;;12.99;72.51;100196.67;255413;1104;117285;-68
2021/08/10 01:39:37;;;;;;;6.73;4.15;;;;;;;12.94;72.42;100202.73;254968;1104;116536;-68
2021/08/10 01:44:45;;;;;;;8.10;4.30;;;;;;;12.96;73.21;100207.84;254282;1100;116329;-66
2021/08/10 01:49:54;;;;;;;11.25;4.45;;;;;;;12.88;73.02;100206.36;254294;1103;116107;-67
2021/08/10 01:55:01;;;;;;;9.23;4.55;;;;;;;12.78;72.97;100200.83;253776;1104;116433;-67
2021/08/10 02:00:12;;;;;;;7.20;3.95;;;;;;;12.70;72.76;100193.17;254833;1104;116694;-67
2021/08/10 02:05:21;;;;;;;9.40;4.00;;;;;;;12.62;73.64;100180.16;255262;1104;116538;-67
2021/08/10 02:10:30;;;;;;;6.10;3.80;;;;;;;12.67;73.54;100173.05;254755;1104;116149;-67
2021/08/10 02:15:40;;;;;;;10.60;4.30;;;;;;;12.70;73.59;100174.45;255510;1104;116703;-67
2021/08/10 02:20:51;;;;;;;9.05;3.83;;;;;;;12.71;73.41;100168.86;255136;1104;117304;-67
2021/08/10 02:26:02;;;;;;;6.55;4.28;;;;;;;12.63;72.99;100171.09;255761;1104;116938;-67
2021/08/10 02:31:09;;;;;;;5.33;3.80;;;;;;;12.54;73.25;100173.31;256949;1104;115026;-68
2021/08/10 02:36:16;;;;;;;4.98;4.20;;;;;;;12.54;73.50;100177.84;257230;1104;116387;-67
2021/08/10 02:41:22;;;;;;;4.38;3.93;;;;;;;12.56;73.47;100173.08;257081;1104;115952;-68
2021/08/10 02:46:32;;;;;;;6.00;4.20;;;;;;;12.52;73.83;100179.98;257313;1104;116269;-68
2021/08/10 02:51:38;;;;;;;10.30;4.13;;;;;;;12.59;74.14;100183.30;255326;1104;116348;-67
2021/08/10 02:56:54;;;;;;;6.64;4.00;;;;;;;12.60;73.85;100187.60;257248;1104;116558;-68
2021/08/10 03:02:08;;;;;;;10.15;4.38;;;;;;;12.55;73.66;100184.82;255990;1104;117316;-68
2021/08/10 03:07:22;;;;;;;10.23;4.45;;;;;;;12.47;73.66;100176.14;257012;1104;115926;-68
2021/08/10 03:12:34;;;;;;;5.90;4.13;;;;;;;12.45;74.14;100177.42;254228;1104;116436;-67
2021/08/10 03:17:44;;;;;;;3.90;3.53;;;;;;;12.43;73.96;100183.01;257018;1104;116482;-67
2021/08/10 03:22:57;;;;;;;4.50;4.08;;;;;;;12.47;74.12;100165.45;257019;1104;116342;-67
2021/08/10 03:28:06;;;;;;;4.73;4.20;;;;;;;12.50;74.13;100168.70;255682;1104;116877;-67
2021/08/10 03:33:16;;;;;;;5.48;4.25;;;;;;;12.46;73.88;100171.03;254426;1104;116562;-67
2021/08/10 03:38:25;;;;;;;4.08;3.50;;;;;;;12.50;74.22;100166.03;254634;1104;116353;-67
2021/08/10 03:43:33;;;;;;;10.50;4.50;;;;;;;12.45;73.88;100175.56;254770;1104;116404;-68
2021/08/10 03:48:46;;;;;;;8.93;4.37;;;;;;;12.48;74.12;100175.09;254339;1104;116437;-68
2021/08/10 03:53:56;;;;;;;7.03;3.28;;;;;;;12.51;74.15;100170.33;255142;1104;116279;-68
2021/08/10 03:59:05;;;;;;;6.53;4.90;;;;;;;12.60;74.33;100174.23;254598;1100;116860;-68
2021/08/10 04:04:15;;;;;;;8.33;4.10;;;;;;;12.68;74.20;100180.03;254079;1104;116729;-67
2021/08/10 04:09:27;;;;;;;6.98;3.40;;;;;;;12.73;74.28;100193.51;255403;1104;115931;-67
2021/08/10 04:14:33;;;;;;;;;;;;;;;12.91;74.67;100192.50;256449;1104;115567;-67
2021/08/10 04:19:46;;;;;;;6.13;3.18;;;;;;;13.17;74.61;100193.00;258046;1103;102011;-67
2021/08/10 04:24:52;;;;;;;4.50;3.38;;;;;;;13.35;74.36;100192.80;257168;1103;115377;-67
2021/08/10 04:29:57;;;;;;;5.13;4.00;;;;;;;13.68;74.48;100183.98;254158;1103;116893;-67
2021/08/10 04:35:04;;;;;;;5.15;4.70;;;;;;;13.92;74.72;100171.20;255312;1100;115193;-67
2021/08/10 04:40:13;;;;;;;8.33;4.70;;;;;;;14.16;74.53;100175.30;257090;1104;114923;-67
2021/08/10 04:45:20;;;;;;;8.08;4.18;;;;;;;14.38;74.40;100167.27;256963;1103;116131;-67
2021/08/10 04:50:26;;;;;;;7.08;4.63;;;;;;;14.53;73.98;100174.73;257180;1104;115405;-66
2021/08/10 04:55:34;;;;;;;13.43;7.10;;;;;;;14.68;74.34;100174.89;257179;1104;115341;-68
2021/08/10 05:00:48;;;;;;;8.90;6.05;;;;;;;14.92;74.24;100168.21;256320;1104;115760;-68
2021/08/10 05:05:55;;;;;;;7.65;5.53;;;;;;;15.34;74.57;100176.39;257300;1103;115484;-69
2021/08/10 05:11:09;;;;;;;10.50;5.50;;;;;;;15.86;74.31;100177.66;255761;1103;115454;-68
2021/08/10 05:16:16;;;;;;;5.53;3.68;;;;;;;16.24;73.92;100169.25;254436;1104;116918;-68
2021/08/10 05:21:23;;;;;;;7.73;3.88;;;;;;;17.67;72.28;100165.07;255762;1104;115332;-68
2021/08/10 05:26:36;;;;;;;3.55;3.25;;;;;;;18.02;71.67;100169.61;255128;1104;115103;-69
2021/08/10 05:31:42;;;;;;;4.50;3.18;;;;;;;19.11;70.27;100159.69;254088;1103;114782;-69
2021/08/10 05:36:51;;;;;;;2.85;2.60;;;;;;;22.84;66.28;100153.89;255083;1104;115605;-70
2021/08/10 05:41:59;;;;;;;5.83;3.07;;;;;;;23.59;65.65;100155.11;254083;1104;114759;-69
2021/08/10 05:47:07;;;;;;;5.95;3.30;;;;;;;25.06;61.66;100148.27;253720;1104;115385;-69
2021/08/10 05:52:19;;;;;;;3.40;3.08;;;;;;;26.34;59.83;100156.48;254712;1100;116352;-69
2021/08/10 05:57:24;;;;;;;7.28;4.44;;;;;;;26.16;59.89;100160.41;254193;1104;117018;-69
2021/08/10 06:02:28;;;;;;;6.80;4.08;;;;;;;25.64;59.20;100160.59;253996;1104;116737;-69
2021/08/10 06:07:32;;;;;;;8.45;4.08;;;;;;;25.50;57.57;100157.20;254027;1104;116153;-69
2021/08/10 06:12:36;;;;;;;2.83;2.63;;;;;;;24.89;57.57;100150.14;253595;1100;116394;-68
2021/08/10 06:17:40;;;;;;;7.15;2.68;;;;;;;24.19;58.37;100144.52;254005;1104;116471;-69
2021/08/10 06:22:44;;;;;;;5.95;2.98;;;;;;;23.99;58.52;100149.73;253842;1103;116181;-70
2021/08/10 06:27:47;;;;;;;3.55;2.38;;;;;;;23.87;58.36;100147.58;253937;1104;116599;-69
2021/08/10 06:32:54;;;;;;;6.93;3.65;;;;;;;23.72;58.63;100148.80;253847;1104;116429;-70
2021/08/10 06:37:58;;;;;;;3.13;2.93;;;;;;;23.54;58.90;100155.27;253798;1104;116435;-68
2021/08/10 06:43:02;;;;;;;2.93;2.73;;;;;;;23.27;58.29;100149.90;256181;1104;116363;-69
2021/08/10 06:48:13;;;;;;;2.80;2.60;;;;;;;23.05;58.26;100140.63;257405;1104;116158;-68
2021/08/10 06:53:21;;;;;;;4.18;2.43;;;;;;;22.99;58.15;100144.56;257289;1104;115922;-69
2021/08/10 06:58:29;;;;;;;2.25;2.05;;;;;;;23.05;58.12;100135.19;257042;1103;116145;-68
2021/08/10 07:03:58;;;;;;;5.85;2.53;;;;;;;23.39;57.42;100140.08;257337;1104;115863;-67
2021/08/10 07:09:06;;;;;;;2.88;2.10;;;;;;;24.59;56.72;100133.59;256962;1104;116225;-69
2021/08/10 07:14:12;;;;;;;4.28;2.28;;;;;;;26.14;56.16;100136.14;257251;1104;115392;-67
2021/08/10 07:19:16;;;;;;;3.03;2.15;;;;;;;27.31;55.08;100139.07;257115;1104;115407;-69
2021/08/10 07:24:22;;;;;;;6.20;3.25;;;;;;;27.33;54.49;100139.53;253908;1104;115197;-68
2021/08/10 07:29:27;;;;;;;2.85;2.28;;;;;;;27.21;53.86;100136.77;257129;1103;115489;-68
2021/08/10 07:34:34;;;;;;;3.80;2.10;;;;;;;27.28;53.49;100139.74;256151;1104;115196;-68
2021/08/10 07:39:51;;;;;;;4.55;2.63;;;;;;;27.16;52.64;100138.58;253798;1104;115424;-69
2021/08/10 07:44:56;;;;;;;2.63;2.20;;;;;;;27.08;52.62;100142.18;253821;1104;115662;-69
2021/08/10 07:49:59;;;;;;;3.15;1.88;;;;;;;27.07;51.98;100134.30;253876;1104;115820;-68
2021/08/10 07:55:02;;;;;;;3.35;2.00;;;;;;;27.10;52.39;100142.64;253813;1104;115370;-69
2021/08/10 08:00:06;;;;;;;2.60;2.40;;;;;;;27.04;52.43;100146.72;254469;1103;115421;-68
2021/08/10 08:05:10;;;;;;;2.60;1.68;;;;;;;27.42;52.45;100140.27;255250;1104;116736;-68
2021/08/10 08:10:13;;;;;;;3.23;2.10;;;;;;;27.16;51.10;100137.77;254768;1100;115795;-68
2021/08/10 08:15:16;;;;;;;4.00;2.23;;;;;;;27.41;51.26;100138.66;253781;1104;117576;-68
2021/08/10 08:20:20;;;;;;;3.07;2.07;;;;;;;27.59;51.85;100129.14;253801;1104;116834;-67
2021/08/10 08:25:23;;;;;;;2.95;2.68;;;;;;;28.10;51.88;100135.17;253584;1104;116688;-68
2021/08/10 08:30:27;;;;;;;2.45;2.23;;;;;;;28.52;50.87;100124.76;254426;1100;116211;-67
2021/08/10 08:35:31;;;;;;;7.18;2.38;;;;;;;28.65;50.57;100134.58;253554;1104;116918;-69
2021/08/10 08:40:38;;;;;;;4.70;2.00;;;;;;;28.95;49.32;100132.36;254626;1104;117047;-67
2021/08/10 08:45:43;;;;;;;2.60;2.40;;;;;;;29.18;49.58;100121.63;256990;1104;117273;-68
2021/08/10 08:50:50;;;;;;;2.13;2.03;;;;;;;29.19;47.83;100116.93;256546;1104;118106;-68
2021/08/10 08:55:53;;;;;;;2.30;1.78;;;;;;;29.22;47.87;100114.28;257162;1104;116265;-68
2021/08/10 09:00:55;;;;;;;2.05;1.85;;;;;;;29.36;47.56;100116.61;257032;1104;116238;-67
2021/08/10 09:05:58;;;;;;;1.23;1.20;;;;;;;29.53;46.53;100116.33;254903;1104;116747;-67
2021/08/10 09:11:07;;;;;;;6.75;1.70;;;;;;;29.42;46.20;100115.23;253832;1104;116249;-67
2021/08/10 09:16:14;;;;;;;2.35;1.70;;;;;;;29.54;45.54;100115.18;255666;1099;117458;-68
2021/08/10 09:21:20;;;;;;;3.18;2.15;;;;;;;29.44;44.78;100096.45;255073;1104;116854;-67
2021/08/10 09:26:39;;;;;;;2.68;2.03;;;;;;;29.53;45.22;100099.84;255232;1104;116994;-67
2021/08/10 09:31:47;;;;;;;2.00;1.90;;;;;;;29.48;43.84;100100.10;255721;1104;115842;-67
2021/08/10 09:36:50;;;;;;;2.87;2.13;;;;;;;29.44;43.32;100100.00;253620;1104;116326;-68
2021/08/10 09:42:02;;;;;;;3.20;2.08;;;;;;;29.24;43.82;100086.48;253771;1104;117474;-67
2021/08/10 09:47:05;;;;;;;3.43;1.20;;;;;;;29.21;44.11;100081.69;253702;1104;115559;-68
2021/08/10 09:52:23;;;;;;;1.88;1.78;;;;;;;29.40;43.50;100081.80;253620;1104;116257;-67
2021/08/10 09:57:32;;;;;;;4.33;2.10;;;;;;;29.56;42.77;100076.37;255131;1104;116294;-68
2021/08/10 10:02:35;;;;;;;2.17;1.77;;;;;;;29.54;41.03;100068.48;253759;1104;116011;-67
2021/08/10 10:07:39;;;;;;;4.28;2.90;;;;;;;29.33;42.24;100073.41;253844;1104;116175;-68
2021/08/10 10:12:46;;;;;;;3.28;2.08;;;;;;;29.02;42.50;100077.67;253666;1103;116587;-67
2021/08/10 10:17:50;;;;;;;2.00;1.90;;;;;;;28.84;42.17;100068.13;254164;1104;116592;-67
2021/08/10 10:22:53;;;;;;;2.55;1.70;;;;;;;28.72;42.95;100073.64;253762;1099;116468;-66
2021/08/10 10:27:59;;;;;;;3.27;1.40;;;;;;;28.67;42.99;100073.88;254078;1104;115996;-67
2021/08/10 10:33:08;;;;;;;7.73;3.50;;;;;;;28.76;43.34;100063.55;254053;1104;117083;-67
2021/08/10 10:38:13;;;;;;;2.50;2.08;;;;;;;28.68;43.59;100054.34;253881;1098;116229;-67
2021/08/10 10:43:16;;;;;;;4.03;1.73;;;;;;;28.66;43.23;100042.91;253753;1104;117097;-67
2021/08/10 10:48:26;;;;;;;3.30;1.90;;;;;;;28.99;43.23;100039.15;253844;1103;116045;-67
2021/08/10 10:53:30;;;;;;;2.88;1.90;;;;;;;29.46;42.53;100034.54;253575;1098;116047;-68
2021/08/10 10:58:34;;;;;;;1.88;1.78;;;;;;;29.83;42.03;100026.81;253733;1104;117131;-68
2021/08/10 11:03:41;;;;;;;5.85;2.28;;;;;;;30.14;41.30;100023.23;253743;1104;116040;-67
2021/08/10 11:08:45;;;;;;;2.33;2.13;;;;;;;30.25;40.97;100014.44;253787;1104;118161;-68
2021/08/10 11:13:48;;;;;;;3.63;2.05;;;;;;;29.91;39.59;100018.74;257278;1104;136490;-68
2021/08/10 11:18:51;;;;;;;3.20;2.05;;;;;;;29.38;39.90;99999.77;255773;1104;115525;-69
2021/08/10 11:23:55;;;;;;;2.30;2.10;;;;;;;29.12;41.65;99986.56;255867;1104;115200;-67
2021/08/10 11:28:58;;;;;;;4.63;2.25;;;;;;;28.98;41.84;99990.89;257114;1104;115559;-68
2021/08/10 11:34:03;;;;;;;4.15;3.75;;;;;;;28.87;43.10;99965.91;257065;1103;117244;-68
2021/08/10 11:39:08;;;;;;;4.73;2.03;;;;;;;28.74;42.45;99962.38;257129;1104;116908;-68
2021/08/10 11:44:20;;;;;;;4.35;2.48;;;;;;;28.67;42.05;99964.16;257163;1104;116426;-68
2021/08/10 11:49:24;;;;;;;3.83;2.38;;;;;;;29.00;41.34;99950.98;257012;1104;117418;-67
2021/08/10 11:54:27;;;;;;;2.47;2.27;;;;;;;29.38;41.10;99957.78;256996;1104;115674;-68
2021/08/10 11:59:30;;;;;;;4.50;2.68;;;;;;;29.42;41.94;99936.73;253647;1104;114987;-68
2021/08/10 12:04:38;;;;;;;3.55;2.65;;;;;;;28.95;41.76;99936.71;255434;1104;115452;-68
2021/08/10 12:09:45;;;;;;;2.95;2.73;;;;;;;28.83;41.83;99941.11;254086;1104;114986;-69
2021/08/10 12:14:49;;;;;;;4.83;2.40;;;;;;;28.86;42.54;99925.89;255528;1104;115089;-69
2021/08/10 12:19:52;;;;;;;4.47;2.83;;;;;;;29.13;41.57;99921.48;253911;1100;116007;-70
2021/08/10 12:25:00;;;;;;;1.73;1.63;;;;;;;29.25;41.51;99915.91;253787;1099;115152;-70
2021/08/10 12:30:13;;;;;;;4.20;2.90;;;;;;;29.44;41.55;99904.22;255700;1104;115466;-69
2021/08/10 12:35:21;;;;;;;2.73;2.53;;;;;;;29.42;41.10;99893.59;254386;1103;115732;-68
2021/08/10 12:40:32;;;;;;;3.97;2.83;;;;;;;29.05;41.09;99887.56;255511;1100;116188;-69
2021/08/10 12:45:38;;;;;;;3.73;2.40;;;;;;;28.71;41.31;99888.25;256885;1104;116869;-71
2021/08/10 12:50:55;;;;;;;6.13;2.70;;;;;;;28.43;42.78;99888.30;257474;1104;118297;-70
2021/08/10 12:56:03;;;;;;;3.80;2.83;;;;;;;28.03;43.33;99902.80;255443;1104;115975;-70
2021/08/10 13:01:09;;;;;;;2.68;2.30;;;;;;;27.91;43.33;99904.77;254229;1104;116185;-71
2021/08/10 13:06:26;;;;;;;4.13;3.23;;;;;;;28.04;44.56;99898.12;253706;1104;116244;-70
2021/08/10 13:11:33;;;;;;;3.65;2.73;;;;;;;28.23;45.27;99892.81;257226;1104;115928;-70
2021/08/10 13:16:41;;;;;;;4.08;3.38;;;;;;;28.23;45.18;99868.15;256984;1103;115359;-70
2021/08/10 13:21:53;;;;;;;6.80;3.58;;;;;;;28.25;44.93;99874.08;257181;1103;116428;-69
2021/08/10 13:27:00;;;;;;;5.65;3.30;;;;;;;28.20;44.93;99857.84;257229;1104;115901;-70
2021/08/10 13:32:16;;;;;;;3.95;3.53;;;;;;;28.22;44.78;99850.11;257048;1104;115310;-70
2021/08/10 13:37:23;;;;;;;4.23;2.73;;;;;;;28.15;44.23;99833.42;257148;1103;115184;-70
2021/08/10 13:42:30;;;;;;;2.80;2.60;;;;;;;27.61;43.30;99831.11;257239;1104;115460;-70
2021/08/10 13:47:37;;;;;;;3.33;3.08;;;;;;;27.39;44.34;99824.17;255369;1104;115228;-70
2021/08/10 13:52:45;;;;;;;8.15;2.90;;;;;;;27.51;44.33;99817.89;257042;1104;115356;-71
2021/08/10 13:57:54;;;;;;;4.15;2.55;;;;;;;27.65;44.52;99815.59;255632;1103;115400;-70
2021/08/10 14:03:01;;;;;;;2.43;2.15;;;;;;;27.60;44.81;99813.09;254099;1104;115684;-70
2021/08/10 14:08:05;;;;;;;4.83;3.23;;;;;;;27.61;45.03;99798.25;253812;1100;115539;-70
2021/08/10 14:13:11;;;;;;;5.43;3.03;;;;;;;27.56;44.80;99800.40;253855;1100;115001;-70
2021/08/10 14:18:15;;;;;;;2.33;2.13;;;;;;;27.40;44.18;99803.08;253772;1104;115627;-70
2021/08/10 14:23:41;;;;;;;4.13;2.75;;;;;;;27.46;44.08;99807.17;254101;1104;115234;-71
2021/08/10 14:28:45;;;;;;;3.77;2.57;;;;;;;27.55;44.66;99799.59;253787;1104;115479;-71
2021/08/10 14:33:48;;;;;;;2.38;2.18;;;;;;;27.55;44.36;99776.90;254131;1100;115212;-70
2021/08/10 14:38:52;;;;;;;3.73;2.20;;;;;;;27.34;44.31;99777.08;253841;1104;115445;-70
2021/08/10 14:43:55;;;;;;;4.05;2.85;;;;;;;27.11;44.51;99787.72;253720;1099;115320;-70
2021/08/10 14:48:58;;;;;;;3.98;2.60;;;;;;;26.89;44.67;99778.03;253553;1099;115158;-69
2021/08/10 14:54:02;;;;;;;4.40;2.40;;;;;;;26.61;45.74;99771.61;253543;1103;115562;-70
2021/08/10 14:59:05;;;;;;;3.88;2.93;;;;;;;26.35;46.66;99758.25;253810;1104;117729;-70
2021/08/10 15:04:09;;;;;;;3.55;2.80;;;;;;;26.14;47.29;99758.30;255123;1104;116359;-69
2021/08/10 15:09:12;;;;;;;6.15;3.03;;;;;;;25.96;48.24;99752.23;253674;1104;116449;-69
2021/08/10 15:14:15;;;;;;;3.08;2.80;;;;;;;25.70;49.12;99744.27;253633;1104;116548;-69
2021/08/10 15:19:18;;;;;;;3.40;2.63;;;;;;;25.48;50.32;99739.94;253415;1104;117509;-69
2021/08/10 15:24:22;;;;;;;4.87;3.20;;;;;;;25.29;51.30;99739.62;253550;1099;114984;-70
2021/08/10 15:29:26;;;;;;;3.55;3.23;;;;;;;25.10;51.71;99723.69;253669;1104;137204;-69
2021/08/10 15:34:30;;;;;;;5.70;3.25;;;;;;;24.91;52.06;99723.31;257255;1104;115869;-68
2021/08/10 15:39:33;;;;;;;2.97;2.77;;;;;;;24.71;52.70;99734.98;257242;1104;115288;-68
2021/08/10 15:44:37;;;;;;;3.78;3.13;;;;;;;24.46;53.78;99728.50;257347;1104;115930;-68
2021/08/10 15:49:41;;;;;;;4.33;3.60;;;;;;;24.12;54.06;99722.05;257180;1103;116278;-69
2021/08/10 15:54:44;;;;;;;9.38;3.45;;;;;;;23.88;54.30;99729.92;257261;1104;115618;-68
2021/08/10 15:59:48;;;;;;;2.75;2.55;;;;;;;23.61;54.56;99762.94;257063;1104;116836;-68
2021/08/10 16:04:51;;;;;;;5.05;4.20;;;;;;;23.29;54.61;99845.77;256955;1104;115576;-68
2021/08/10 16:09:54;;;;;;;6.45;3.10;;;;;;;22.71;55.23;99865.81;257162;1104;117001;-69
2021/08/10 16:14:57;;;;;;;3.93;2.57;;;;;;;22.07;55.80;99870.67;257341;1104;115903;-69
2021/08/10 16:20:02;;;;;;;5.35;2.68;;;;;;;21.39;56.64;99893.32;257374;1104;116942;-69
2021/08/10 16:25:07;;;;;;;4.13;2.68;;;;;;;20.86;57.98;99899.16;257285;1104;117491;-68
2021/08/10 16:30:11;;;;;;;4.50;2.95;;;;;;;20.48;59.00;99901.97;257261;1104;116638;-67
2021/08/10 16:35:14;;;;;;;8.43;3.67;;;;;;;20.41;59.83;99852.83;255309;1104;116015;-68
2021/08/10 16:40:17;;;;;;;4.93;2.95;;;;;;;20.46;60.53;99786.96;253565;1104;116628;-68
2021/08/10 16:45:21;;;;;;;6.05;2.45;;;;;;;20.54;61.16;99769.20;253522;1104;116095;-69
2021/08/10 16:50:24;;;;;;;4.83;2.70;;;;;;;20.60;61.61;99774.22;253648;1104;116557;-69
2021/08/10 16:55:27;;;;;;;8.40;3.10;;;;;;;20.60;61.91;99771.52;253495;1104;116918;-70
2021/08/10 17:00:31;;;;;;;3.13;2.83;;;;;;;20.62;62.11;99773.92;253739;1104;116531;-69
2021/08/10 17:05:39;;;;;;;2.80;2.10;;;;;;;20.62;62.28;99769.31;255192;1104;115575;-69
2021/08/10 17:10:46;;;;;;;2.98;2.78;;;;;;;20.55;62.48;99765.39;254187;1099;115123;-69
2021/08/10 17:15:50;;;;;;;4.03;2.75;;;;;;;20.40;62.42;99756.46;253426;1104;115819;-68
2021/08/10 17:20:57;;;;;;;3.65;2.70;;;;;;;20.15;62.31;99765.81;253530;1104;115125;-68
2021/08/10 17:26:03;;;;;;;4.93;2.80;;;;;;;20.04;63.58;99777.09;257240;1104;115615;-69
2021/08/10 17:31:06;;;;;;;3.38;3.18;;;;;;;19.92;63.82;99777.55;257296;1104;115238;-69
2021/08/10 17:36:10;;;;;;;4.95;2.63;;;;;;;19.76;64.12;99776.20;257227;1103;116212;-71
2021/08/10 17:41:13;;;;;;;3.50;3.20;;;;;;;19.71;64.44;99768.95;257065;1104;115384;-69
2021/08/10 17:46:17;;;;;;;2.78;2.48;;;;;;;19.53;64.56;99780.60;256974;1104;116173;-69
2021/08/10 17:51:22;;;;;;;2.93;2.73;;;;;;;19.25;65.04;99776.91;256971;1103;114950;-70
2021/08/10 17:56:26;;;;;;;3.94;2.90;;;;;;;19.12;64.99;99781.12;257075;1104;115592;-69
2021/08/10 18:01:30;;;;;;;3.10;2.85;;;;;;;19.01;65.65;99787.73;257131;1104;115659;-70
2021/08/10 18:06:34;;;;;;;3.90;2.50;;;;;;;18.97;66.15;99789.39;257002;1103;114744;-69
2021/08/10 18:11:37;;;;;;;2.05;1.83;;;;;;;18.88;65.91;99790.34;257130;1103;115403;-68
2021/08/10 18:16:40;;;;;;;3.43;2.60;;;;;;;18.81;66.43;99796.08;257309;1104;115014;-68
2021/08/10 18:21:43;;;;;;;4.25;3.78;;;;;;;18.74;66.42;99790.22;257319;1104;115220;-69
2021/08/10 18:26:46;;;;;;;6.68;5.05;;;;;;;18.59;66.36;99798.46;257536;1104;115268;-68
2021/08/10 18:31:54;;;;;;;7.03;4.30;;;;;;;18.36;66.08;99803.52;257111;1103;115144;-68
2021/08/10 18:36:58;;;;;;;3.75;3.30;;;;;;;18.26;66.66;99808.22;257213;1104;115358;-68
2021/08/10 18:42:02;;;;;;;5.95;3.68;;;;;;;18.07;66.98;99806.20;257755;1103;115534;-68
2021/08/10 18:47:05;;;;;;;3.35;2.55;;;;;;;17.83;66.82;99819.59;257333;1103;115943;-67
2021/08/10 18:52:09;;;;;;;3.15;2.88;;;;;;;17.51;67.01;99816.53;257178;1104;115242;-68
2021/08/10 18:57:15;;;;;;;13.73;3.13;;;;;;;17.46;67.72;99830.03;257619;1103;116162;-67
2021/08/10 19:02:19;;;;;;;3.03;2.60;;;;;;;17.38;67.78;99825.25;257302;1104;116259;-67
2021/08/10 19:07:28;;;;;;;3.43;2.60;;;;;;;17.37;68.05;99823.63;254005;1104;115748;-67
2021/08/10 19:12:31;;;;;;;6.05;4.28;;;;;;;17.39;68.36;99829.56;257139;1104;116044;-68
2021/08/10 19:17:34;;;;;;;6.13;3.35;;;;;;;17.35;67.90;99833.88;257288;1104;119588;-67
2021/08/10 19:22:41;;;;;;;4.60;4.20;;;;;;;17.30;68.45;99820.43;257360;1104;115997;-68
2021/08/10 19:27:45;;;;;;;5.48;3.73;;;;;;;17.28;68.56;99827.98;257124;1104;116444;-68
2021/08/10 19:32:49;;;;;;;4.63;3.73;;;;;;;17.16;68.36;99836.37;257142;1104;117435;-68
2021/08/10 19:37:53;;;;;;;3.43;3.13;;;;;;;16.91;68.25;99829.19;257129;1104;116675;-69
2021/08/10 19:42:57;;;;;;;3.88;3.58;;;;;;;16.67;68.55;99836.25;257286;1103;116546;-67
2021/08/10 19:48:00;;;;;;;4.03;3.10;;;;;;;16.43;68.72;99839.49;257259;1104;116145;-67
2021/08/10 19:53:04;;;;;;;4.53;4.13;;;;;;;16.39;69.33;99846.48;253863;1104;115861;-68
2021/08/10 19:58:07;;;;;;;3.35;3.15;;;;;;;16.40;69.33;99842.72;257080;1104;117270;-67
2021/08/10 20:03:11;;;;;;;7.18;2.83;;;;;;;16.46;69.92;99848.91;255695;1098;117186;-68
2021/08/10 20:08:15;;;;;;;4.15;3.75;;;;;;;16.50;70.31;99845.41;257131;1104;117065;-68
2021/08/10 20:13:21;;;;;;;4.40;4.00;;;;;;;16.59;70.41;99842.15;257148;1104;116755;-67
2021/08/10 20:18:27;;;;;;;5.55;4.80;;;;;;;16.61;71.00;99837.30;257000;1104;117626;-67
2021/08/10 20:23:31;;;;;;;6.83;6.13;;;;;;;16.64;71.21;99844.87;257270;1104;116648;-66
2021/08/10 20:28:35;;;;;;;4.60;4.20;;;;;;;16.69;71.16;99842.17;256996;1103;115871;-67
2021/08/10 20:33:42;;;;;;;5.95;5.40;;;;;;;16.68;71.02;99851.33;254515;1104;115640;-66
2021/08/10 20:38:45;;;;;;;6.13;5.63;;;;;;;16.69;71.15;99839.48;257270;1103;115812;-67
2021/08/10 20:43:51;;;;;;;5.83;5.23;;;;;;;16.67;71.29;99847.83;255495;1100;115265;-68
2021/08/10 20:48:57;;;;;;;;;;;;;;;16.58;71.29;99841.34;256465;1104;114598;-68
2021/08/10 20:54:01;;;;;;;5.13;4.60;;;;;;;16.51;71.39;99843.50;256396;1104;102995;-67
2021/08/10 20:59:04;;;;;;;5.48;4.98;;;;;;;16.53;71.60;99843.23;257014;1104;115409;-67
2021/08/10 21:04:08;;;;;;;6.98;5.38;;;;;;;16.46;71.76;99843.53;254290;1104;115337;-67
2021/08/10 21:09:12;;;;;;;7.53;5.07;;;;;;;16.41;71.66;99841.64;257023;1104;115950;-67
2021/08/10 21:14:15;;;;;;;7.20;6.10;;;;;;;16.34;71.64;99843.80;255067;1104;115595;-68
2021/08/10 21:19:19;;;;;;;7.05;5.63;;;;;;;16.27;71.59;99843.25;253818;1103;116585;-67
2021/08/10 21:24:24;;;;;;;6.35;5.25;;;;;;;16.18;71.57;99842.20;256536;1104;115565;-67
2021/08/10 21:29:27;;;;;;;5.65;4.78;;;;;;;16.10;71.77;99856.98;257234;1103;115953;-67
2021/08/10 21:34:31;;;;;;;4.68;4.23;;;;;;;16.05;71.99;99842.72;257185;1104;116398;-68
2021/08/10 21:39:35;;;;;;;4.93;3.80;;;;;;;15.95;71.27;99853.45;257224;1104;116126;-69
2021/08/10 21:44:38;;;;;;;5.35;4.85;;;;;;;15.74;71.48;99855.30;254649;1098;116627;-68
2021/08/10 21:49:41;;;;;;;7.70;4.60;;;;;;;15.54;71.70;99863.29;253596;1104;116269;-68
2021/08/10 21:54:45;;;;;;;4.35;2.70;;;;;;;15.44;71.62;99874.80;257043;1104;116289;-69
2021/08/10 21:59:49;;;;;;;5.50;3.40;;;;;;;15.36;71.81;99878.79;255379;1104;115443;-67
2021/08/10 22:04:52;;;;;;;5.40;3.20;;;;;;;15.28;71.69;99886.56;257259;1104;115182;-67
2021/08/10 22:09:58;;;;;;;6.13;3.70;;;;;;;15.10;71.92;99874.38;257103;1103;116548;-68
2021/08/10 22:15:01;;;;;;;3.68;3.35;;;;;;;14.96;71.82;99889.34;257230;1104;115204;-67
2021/08/10 22:20:06;;;;;;;3.53;3.23;;;;;;;14.90;72.63;99885.82;257209;1104;115037;-67
2021/08/10 22:25:10;;;;;;;3.43;3.13;;;;;;;14.94;72.38;99884.23;257173;1104;115193;-66
2021/08/10 22:30:13;;;;;;;4.43;3.50;;;;;;;14.96;72.71;99886.66;257227;1104;115178;-66
2021/08/10 22:35:15;;;;;;;4.90;4.33;;;;;;;14.92;72.38;99886.38;257245;1104;115290;-66
2021/08/10 22:40:18;;;;;;;5.15;4.53;;;;;;;14.77;71.95;99886.27;257032;1104;115813;-68
2021/08/10 22:45:21;;;;;;;4.58;4.25;;;;;;;14.77;72.83;99881.70;256928;1103;116682;-67
2021/08/10 22:50:24;;;;;;;4.33;3.93;;;;;;;14.76;72.91;99874.72;257025;1104;116061;-67
2021/08/10 22:55:27;;;;;;;4.23;3.23;;;;;;;14.63;72.81;99885.11;257240;1104;115678;-67
2021/08/10 23:00:30;;;;;;;3.50;3.20;;;;;;;14.51;73.15;99879.10;257337;1104;115275;-66
2021/08/10 23:05:34;;;;;;;3.93;3.58;;;;;;;14.49;73.15;99884.72;257219;1104;115189;-66
2021/08/10 23:10:38;;;;;;;4.53;3.35;;;;;;;14.47;72.60;99882.30;257340;1104;114747;-66
2021/08/10 23:15:41;;;;;;;3.60;3.30;;;;;;;14.48;73.51;99883.10;257094;1104;115162;-67
2021/08/10 23:20:44;;;;;;;4.18;3.78;;;;;;;14.48;73.40;99886.59;257103;1104;116887;-67